METAR Reports for Delaware

 

KDOV - Dover Afb, Delaware, USA
Distance from station: ENE 107mi, 172km
Updated: Wed, 21-Feb-2018 1:56am EST
Partly cloudy
Partly cloudy
 Wind from S
Wind: S 7 mph , 11 km/h
Temperature: 61°F , 16°C
Dew Point: 59°F , 15°C
Humidity: 94%
Barometer: 30.35 inHg , 1027.8 hPa
Clouds: Partly cloudy
Visibility: 10 miles , 16 km
Cloud details: Partly cloudy 4500 ft
2018/02/21 06:56 KDOV 210656Z AUTO 18006KT 10SM SCT045 16/15 A3035 RMK AO2 SLP281 T01580150 $
KGED - Georgetown, Delaware, USA
Distance from station: E 111mi, 179km
Updated: Wed, 21-Feb-2018 2:14am EST
Partly cloudy
Partly cloudy
 Wind from SSW
Wind: SSW 13 mph , 20 km/h
Temperature: 64°F , 18°C
Dew Point: 61°F , 16°C
Humidity: 88%
Barometer: 30.37 inHg , 1028.4 hPa
Clouds: Partly cloudy
Visibility: 10 miles , 16 km
Cloud details: Partly cloudy 900 ft
2018/02/21 07:14 KGED 210714Z AUTO 21011KT 10SM SCT009 18/16 A3037 RMK AO2 T01780161 $
KILG - Wilmington, Delaware, USA
Distance from station: ENE 114mi, 183km
Updated: Wed, 21-Feb-2018 1:51am EST
Fog, Overcast
Fog, Overcast
 Wind from S
Wind: S 9 mph , 15 km/h
Temperature: 52°F , 11°C
Dew Point: 52°F , 11°C
Humidity: 100%
Barometer: 30.33 inHg , 1027.1 hPa
Summary: Fog
Clouds: Overcast
Visibility: 1/4 mile , 2 km
Cloud details: Overcast 100 ft
2018/02/21 06:51 KILG 210651Z AUTO 17008KT 1/4SM R01/1400FT FG VV001 11/11 A3033 RMK AO2 RAB03RAEMM SLP271 P0000 T01110111 PWINO $